Terminal Aerodrome Forecast
Issued by NWS

Home | Current Version | Previous Version | Text Only | Print | Product List | Glossary On
Versions: 1 2 3 4 5 6 7 8 9 10 11 12 13 14
000
FTUS46 KLOX 091413 AAA
TAFVNY
TAF AMD
KVNY 091413Z 0914/1012 VRB03KT P6SM SCT025 BKN080
     FM091800 13007KT P6SM SCT025 BKN050
     FM100300 VRB03KT P6SM BKN040
     FM100900 VRB03KT P6SM OVC025=

USA.gov is the U.S. government's official web portal to all federal, state and local government web resources and services.